createdAt,value
2024-01-10T00:09:34.348Z,-1.1
2024-01-10T00:22:34.365Z,-1.5
2024-01-10T00:35:34.362Z,-1.4
2024-01-10T00:48:34.371Z,-1.4
2024-01-10T01:01:34.420Z,-1.5
2024-01-10T01:14:34.403Z,-1.3
2024-01-10T01:27:34.450Z,-1.7
2024-01-10T01:40:34.492Z,-1.4
2024-01-10T01:53:34.478Z,-1.6
2024-01-10T02:06:34.438Z,-1.4
2024-01-10T02:19:34.508Z,-1.2
2024-01-10T02:32:34.485Z,-1.5
2024-01-10T02:45:34.440Z,-1.7
2024-01-10T02:58:34.531Z,-1.5
2024-01-10T03:11:34.513Z,-1.7
2024-01-10T03:24:34.483Z,-1.5
2024-01-10T03:37:34.524Z,-1.9
2024-01-10T03:50:34.590Z,-2.1
2024-01-10T04:03:34.590Z,-1.7
2024-01-10T04:16:34.565Z,-1.7
2024-01-10T04:29:34.581Z,-2.0
2024-01-10T04:42:34.577Z,-2.1
2024-01-10T04:55:34.607Z,-1.7
2024-01-10T05:08:34.589Z,-1.6
2024-01-10T05:21:34.660Z,-1.7
2024-01-10T05:34:34.704Z,-1.8
2024-01-10T05:47:34.833Z,-1.7
2024-01-10T06:00:34.780Z,-1.5
2024-01-10T06:13:38.266Z,-1.4
2024-01-10T06:26:34.802Z,-1.4
2024-01-10T06:39:34.854Z,-1.5
2024-01-10T06:53:34.814Z,-1.7
2024-01-10T07:07:34.823Z,-1.5
2024-01-10T07:21:34.835Z,-1.0
2024-01-10T07:36:34.974Z,-0.7
2024-01-10T07:50:34.867Z,-0.6
2024-01-10T08:04:34.870Z,-0.1
2024-01-10T08:18:34.913Z,0.9
2024-01-10T08:32:35.003Z,1.9
2024-01-10T08:46:34.893Z,2.1
2024-01-10T09:00:34.937Z,2.3
2024-01-10T09:14:34.880Z,2.7
2024-01-10T09:28:34.903Z,3.1
2024-01-10T09:42:35.120Z,3.2
2024-01-10T09:56:34.937Z,3.3
2024-01-10T10:10:34.928Z,3.1
2024-01-10T10:24:34.922Z,3.3
2024-01-10T10:38:35.504Z,3.6
2024-01-10T10:52:34.941Z,3.9
2024-01-10T11:07:34.947Z,4.1
2024-01-10T11:21:34.971Z,4.3
2024-01-10T11:36:34.994Z,4.7
2024-01-10T11:50:35.057Z,4.7
2024-01-10T12:18:35.064Z,4.8
2024-01-10T12:32:35.118Z,5.0
2024-01-10T12:46:35.049Z,5.1
2024-01-10T13:00:35.046Z,5.3
2024-01-10T13:14:35.164Z,5.7
2024-01-10T13:28:35.109Z,5.7
2024-01-10T13:42:35.097Z,5.3
2024-01-10T13:56:35.212Z,5.1
2024-01-10T14:10:35.149Z,5.5
2024-01-10T14:24:35.260Z,5.7
2024-01-10T14:38:35.144Z,5.5
2024-01-10T14:53:35.538Z,5.0
2024-01-10T15:07:35.832Z,4.5
2024-01-10T15:21:35.195Z,3.7
2024-01-10T15:35:36.194Z,2.6
2024-01-10T15:49:36.998Z,1.6
2024-01-10T16:03:35.356Z,1.0
2024-01-10T16:17:35.348Z,0.6
2024-01-10T16:31:35.302Z,1.0
2024-01-10T16:44:35.469Z,0.5
2024-01-10T16:57:35.653Z,0.3
2024-01-10T17:10:35.398Z,0.0
2024-01-10T17:23:35.378Z,-0.1
2024-01-10T17:36:35.368Z,-0.7
2024-01-10T17:49:35.827Z,-1.2
2024-01-10T18:02:35.827Z,-1.4
2024-01-10T18:15:35.393Z,-1.4
2024-01-10T18:28:35.361Z,-1.2
2024-01-10T18:41:35.418Z,-1.3
2024-01-10T18:54:35.390Z,-1.3
2024-01-10T19:07:35.409Z,-0.8
2024-01-10T19:20:35.478Z,-1.1
2024-01-10T19:33:35.503Z,-1.4
2024-01-10T19:46:35.506Z,-1.7
2024-01-10T19:59:35.719Z,-1.6
2024-01-10T20:12:35.524Z,-1.5
2024-01-10T20:25:35.531Z,-1.6
2024-01-10T20:38:35.571Z,-1.8
2024-01-10T20:51:35.816Z,-1.9
2024-01-10T21:04:35.563Z,-2.0
2024-01-10T21:17:36.688Z,-2.0
2024-01-10T21:30:36.597Z,-2.2
2024-01-10T21:43:35.571Z,-2.2
2024-01-10T21:56:35.672Z,-2.4
2024-01-10T22:09:35.617Z,-2.4
2024-01-10T22:22:35.675Z,-2.2
2024-01-10T22:35:35.729Z,-2.4
2024-01-10T22:48:35.797Z,-2.6
2024-01-10T23:01:35.652Z,-2.5
2024-01-10T23:14:35.718Z,-2.6
2024-01-10T23:27:35.661Z,-2.5
2024-01-10T23:40:35.778Z,-2.8
2024-01-10T23:53:35.762Z,-3.0
